Terminal Aerodrome Forecast
Issued by NWS Portland, OR

Home | Current Version | Previous Version | Text Only | Print | Product List | Glossary On
Versions: 1 2 3 4 5 6 7 8 9 10 11 12 13
000
FTUS46 KPQR 212328
TAFHIO
TAF
KHIO 212328Z 2200/2224 18012G20KT 5SM RA BR OVC015
     FM220200 18022G30KT 3SM RA SCT007 OVC015
     FM220500 19025G35KT 3SM RA OVC015
     FM221200 20020G30KT 4SM -RA BR BKN015 OVC025
     FM222000 23008KT P6SM SCT025 BKN040=

USA.gov is the U.S. government's official web portal to all federal, state and local government web resources and services.